Time;durP1;ratioP1;P1;durP2;ratioP2;P2;SDS_P1;SDS_P2;PMS_P1;PMS_P2;Temp;Humidity;BMP_temperature;BMP_pressure;BME280_temperature;BME280_humidity;BME280_pressure;Samples;Min_cycle;Max_cycle;Signal;HPM_P1;HPM_P2
2022/04/25 00:00:35;;;;;;;16.30;9.20;;;7.90;99.90;;;;;;5015706;28;20081;-85
2022/04/25 00:03:03;;;;;;;17.98;9.00;;;8.00;99.90;;;;;;5031415;28;20095;-86
2022/04/25 00:05:28;;;;;;;17.33;9.35;;;8.00;99.90;;;;;;5035089;28;20041;-86
2022/04/25 00:07:54;;;;;;;19.55;9.60;;;7.90;99.90;;;;;;5035846;28;20104;-86
2022/04/25 00:10:21;;;;;;;18.83;10.25;;;7.90;99.90;;;;;;5035206;28;20378;-86
2022/04/25 00:12:46;;;;;;;20.30;10.65;;;7.90;99.90;;;;;;5019642;28;20060;-86
2022/04/25 00:15:12;;;;;;;20.33;10.43;;;7.90;99.90;;;;;;5018344;28;20053;-86
2022/04/25 00:17:38;;;;;;;19.98;10.27;;;7.80;99.90;;;;;;5017399;28;20053;-86
2022/04/25 00:20:05;;;;;;;20.33;10.88;;;7.80;99.90;;;;;;5036825;28;20404;-87
2022/04/25 00:22:30;;;;;;;20.33;11.52;;;7.80;99.90;;;;;;5035875;28;20038;-87
2022/04/25 00:24:56;;;;;;;19.30;11.05;;;7.70;99.90;;;;;;5017051;28;20056;-87
2022/04/25 00:27:22;;;;;;;22.67;11.80;;;7.70;99.90;;;;;;5017724;28;20060;-87
2022/04/25 00:29:48;;;;;;;21.67;11.27;;;7.70;99.90;;;;;;5035822;28;20416;-87
2022/04/25 00:32:13;;;;;;;19.73;11.32;;;7.70;99.90;;;;;;5017290;28;20096;-87
2022/04/25 00:34:39;;;;;;;23.75;11.90;;;7.70;99.90;;;;;;5041017;28;20489;-87
2022/04/25 00:37:04;;;;;;;20.87;11.60;;;7.60;99.90;;;;;;5040117;28;20038;-86
2022/04/25 00:39:30;;;;;;;21.47;11.10;;;7.70;99.90;;;;;;5017277;28;20124;-86
2022/04/25 00:41:57;;;;;;;21.30;12.13;;;7.70;99.90;;;;;;5017628;28;20080;-86
2022/04/25 00:44:23;;;;;;;19.50;10.27;;;7.70;99.90;;;;;;5017019;28;20400;-86
2022/04/25 00:46:51;;;;;;;19.40;11.23;;;7.60;99.90;;;;;;5017402;28;20057;-87
2022/04/25 00:49:17;;;;;;;21.27;11.83;;;7.60;99.90;;;;;;5017662;28;20060;-87
2022/04/25 00:51:42;;;;;;;20.90;10.60;;;7.60;99.90;;;;;;5016675;28;20049;-87
2022/04/25 00:54:10;;;;;;;22.23;11.73;;;7.50;99.90;;;;;;5036006;28;20041;-87
2022/04/25 00:56:36;;;;;;;25.47;12.60;;;7.50;99.90;;;;;;5036170;28;20080;-86
2022/04/25 00:59:03;;;;;;;25.47;13.13;;;7.60;99.90;;;;;;5035101;28;20497;-86
2022/04/25 01:01:29;;;;;;;21.53;11.50;;;7.50;99.90;;;;;;5018094;28;20053;-87
2022/04/25 01:03:55;;;;;;;21.08;11.48;;;7.50;99.90;;;;;;5036141;28;20052;-87
2022/04/25 01:06:20;;;;;;;25.07;13.07;;;7.50;99.90;;;;;;5035486;28;20061;-87
2022/04/25 01:08:46;;;;;;;25.05;12.00;;;7.50;99.90;;;;;;5018191;28;20128;-87
2022/04/25 01:11:13;;;;;;;24.20;12.68;;;7.50;99.90;;;;;;5036533;28;20180;-86
2022/04/25 01:13:39;;;;;;;23.80;12.65;;;7.50;99.90;;;;;;5035584;28;20041;-87
2022/04/25 01:16:05;;;;;;;26.92;13.18;;;7.50;99.90;;;;;;5018288;28;20052;-87
2022/04/25 01:18:30;;;;;;;22.33;12.60;;;7.50;99.90;;;;;;5018047;28;20080;-87
2022/04/25 01:20:58;;;;;;;25.30;12.85;;;7.40;99.90;;;;;;5034669;28;20136;-87
2022/04/25 01:28:54;;;;;;;24.63;13.25;;;7.40;99.90;;;;;;5015744;28;20045;-86
2022/04/25 01:31:19;;;;;;;22.77;12.23;;;7.30;99.90;;;;;;5034561;28;20041;-87
2022/04/25 01:33:45;;;;;;;25.77;13.27;;;7.30;99.90;;;;;;5033614;28;20404;-86
2022/04/25 01:36:12;;;;;;;25.30;12.23;;;7.30;99.90;;;;;;5017110;28;20049;-86
2022/04/25 01:38:37;;;;;;;24.07;12.80;;;7.30;99.90;;;;;;5034597;28;20050;-86
2022/04/25 01:41:03;;;;;;;22.55;12.07;;;7.20;99.90;;;;;;5015883;28;20037;-88
2022/04/25 01:43:29;;;;;;;22.05;12.20;;;7.20;99.90;;;;;;5039650;28;20017;-86
2022/04/25 01:45:54;;;;;;;24.80;12.30;;;7.10;99.90;;;;;;5038139;28;20110;-86
2022/04/25 01:48:21;;;;;;;23.23;12.30;;;7.20;99.90;;;;;;5033569;28;20360;-87
2022/04/25 01:50:49;;;;;;;23.33;12.40;;;7.10;99.90;;;;;;5016345;28;20167;-87
2022/04/25 01:53:15;;;;;;;22.43;12.33;;;7.10;99.90;;;;;;5016690;28;20049;-87
2022/04/25 01:55:40;;;;;;;25.40;13.25;;;7.00;99.90;;;;;;5015904;28;20535;-87
2022/04/25 01:58:06;;;;;;;24.38;12.27;;;7.00;99.90;;;;;;5017387;28;20056;-87
2022/04/25 02:00:33;;;;;;;24.92;13.07;;;7.00;99.90;;;;;;5034462;28;20113;-87
2022/04/25 02:02:58;;;;;;;25.27;13.05;;;6.90;99.90;;;;;;5013793;28;20527;-87
2022/04/25 02:05:24;;;;;;;25.40;12.90;;;6.90;99.90;;;;;;5035324;28;20503;-86
2022/04/25 02:07:49;;;;;;;23.42;12.48;;;6.80;99.90;;;;;;5016999;28;20095;-87
2022/04/25 02:10:15;;;;;;;21.88;12.18;;;6.80;99.90;;;;;;5034390;28;20045;-87
2022/04/25 02:12:43;;;;;;;25.55;12.45;;;6.80;99.90;;;;;;5034494;28;20053;-87
2022/04/25 02:15:12;;;;;;;24.88;12.98;;;6.80;99.90;;;;;;5034984;28;20054;-87
2022/04/25 02:17:38;;;;;;;25.52;12.60;;;6.80;99.90;;;;;;5033296;28;20384;-87
2022/04/25 02:20:04;;;;;;;24.88;12.18;;;6.80;99.90;;;;;;5035181;28;20393;-86
2022/04/25 02:22:29;;;;;;;21.63;12.68;;;6.80;99.90;;;;;;5017331;28;20050;-87
2022/04/25 02:24:55;;;;;;;23.80;13.15;;;6.80;99.90;;;;;;5015851;28;20049;-87
2022/04/25 02:27:21;;;;;;;23.52;12.77;;;6.80;99.90;;;;;;5016964;28;20049;-87
2022/04/25 02:29:48;;;;;;;22.83;12.48;;;6.80;99.90;;;;;;5016117;28;20049;-86
2022/04/25 02:32:13;;;;;;;26.17;12.90;;;6.80;99.90;;;;;;5034004;28;20477;-86
2022/04/25 02:34:40;;;;;;;24.38;12.82;;;6.80;99.90;;;;;;5033265;28;20049;-86
2022/04/25 02:37:06;;;;;;;26.20;12.95;;;6.80;99.90;;;;;;5034243;28;20115;-87
2022/04/25 02:39:32;;;;;;;24.98;12.60;;;6.70;99.90;;;;;;5033802;28;20373;-87
2022/04/25 02:41:58;;;;;;;24.73;13.32;;;6.80;99.90;;;;;;5033246;28;20041;-87
2022/04/25 02:44:23;;;;;;;23.73;13.40;;;6.70;99.90;;;;;;5032601;28;20050;-87
2022/04/25 02:46:49;;;;;;;24.73;12.23;;;6.70;99.90;;;;;;5033273;28;20049;-87
2022/04/25 02:49:14;;;;;;;24.23;12.93;;;6.70;99.90;;;;;;5016300;28;20060;-87
2022/04/25 02:51:40;;;;;;;21.20;12.52;;;6.70;99.90;;;;;;5015906;28;20084;-87
2022/04/25 02:54:05;;;;;;;23.55;12.60;;;6.70;99.90;;;;;;5041033;28;20049;-86
2022/04/25 02:56:31;;;;;;;25.23;13.43;;;6.70;99.90;;;;;;5033530;28;20076;-87
2022/04/25 02:58:57;;;;;;;24.52;11.73;;;6.70;99.90;;;;;;5032862;28;20049;-86
2022/04/25 03:01:23;;;;;;;24.73;12.27;;;6.70;99.90;;;;;;5034053;28;20075;-87
2022/04/25 03:03:48;;;;;;;25.15;12.27;;;6.60;99.90;;;;;;5034169;28;20041;-87
2022/04/25 03:06:14;;;;;;;22.15;12.02;;;6.60;99.90;;;;;;5015707;28;20499;-87
2022/04/25 03:08:40;;;;;;;23.38;11.73;;;6.70;99.90;;;;;;5033969;28;20059;-86
2022/04/25 03:11:08;;;;;;;20.80;11.63;;;6.70;99.90;;;;;;5016019;28;20127;-87
2022/04/25 03:13:34;;;;;;;23.60;12.25;;;6.70;99.90;;;;;;5015255;28;20481;-86
2022/04/25 03:16:01;;;;;;;25.08;11.70;;;6.60;99.90;;;;;;5033946;28;20041;-87
2022/04/25 03:18:27;;;;;;;23.92;11.60;;;6.70;99.90;;;;;;5016390;28;20056;-86
2022/04/25 03:20:53;;;;;;;24.33;11.63;;;6.60;99.90;;;;;;5032155;28;20033;-87
2022/04/25 03:23:20;;;;;;;23.98;12.23;;;6.70;99.90;;;;;;5032998;28;20489;-86
2022/04/25 03:25:46;;;;;;;21.35;11.27;;;6.60;99.90;;;;;;5032582;28;20095;-87
2022/04/25 03:28:12;;;;;;;21.75;11.77;;;6.60;99.90;;;;;;5032867;28;20057;-87
2022/04/25 03:30:38;;;;;;;23.55;11.57;;;6.60;99.90;;;;;;5015348;28;20370;-86
2022/04/25 03:33:03;;;;;;;23.00;11.82;;;6.60;99.90;;;;;;5014670;28;20507;-86
2022/04/25 03:35:30;;;;;;;25.77;12.02;;;6.60;99.90;;;;;;5014373;28;20118;-87
2022/04/25 03:37:57;;;;;;;21.20;11.40;;;6.70;99.90;;;;;;5014580;28;20124;-86
2022/04/25 03:40:23;;;;;;;22.15;12.57;;;6.60;99.90;;;;;;5035654;28;20405;-86
2022/04/25 03:42:49;;;;;;;23.23;12.55;;;6.50;99.90;;;;;;5036328;28;20493;-86
2022/04/25 03:45:16;;;;;;;23.98;12.13;;;6.60;99.90;;;;;;5019042;28;20140;-86
2022/04/25 03:47:44;;;;;;;23.00;11.95;;;6.60;99.90;;;;;;5035498;28;20176;-86
2022/04/25 03:50:11;;;;;;;22.58;11.75;;;6.60;99.90;;;;;;5036823;28;20038;-86
2022/04/25 03:52:38;;;;;;;22.63;12.02;;;6.50;99.90;;;;;;5018806;28;20045;-86
2022/04/25 03:57:49;;;;;;;23.15;12.35;;;6.50;99.90;;;;;;5036438;28;20057;-86
2022/04/25 04:00:15;;;;;;;20.92;11.45;;;6.50;99.90;;;;;;5036121;28;20046;-86
2022/04/25 04:02:40;;;;;;;23.88;12.52;;;6.50;99.90;;;;;;5048090;28;20045;-86
2022/04/25 04:05:06;;;;;;;21.67;11.40;;;6.60;99.90;;;;;;5057252;28;20041;-86
2022/04/25 04:07:32;;;;;;;26.92;12.02;;;6.60;99.90;;;;;;5057191;28;20045;-86
2022/04/25 04:09:58;;;;;;;22.27;11.63;;;6.50;99.90;;;;;;5037931;28;20037;-86
2022/04/25 04:12:25;;;;;;;20.40;11.70;;;6.50;99.90;;;;;;5039387;28;20045;-86
2022/04/25 04:14:51;;;;;;;23.07;10.83;;;6.50;99.90;;;;;;5038960;28;20075;-86
2022/04/25 04:17:17;;;;;;;21.08;11.23;;;6.50;99.90;;;;;;5055691;28;20048;-86
2022/04/25 04:19:44;;;;;;;23.20;10.93;;;6.50;99.90;;;;;;5057093;28;20113;-87
2022/04/25 04:22:10;;;;;;;23.88;10.90;;;6.50;99.90;;;;;;5057030;28;20481;-86
2022/04/25 04:24:36;;;;;;;22.17;11.68;;;6.50;99.90;;;;;;5056600;28;20033;-86
2022/04/25 04:27:04;;;;;;;22.90;11.40;;;6.50;99.90;;;;;;5037780;28;20516;-86
2022/04/25 04:29:31;;;;;;;20.15;11.30;;;6.50;99.90;;;;;;5038276;28;20056;-87
2022/04/25 04:31:58;;;;;;;20.77;11.45;;;6.50;99.90;;;;;;5038517;28;20489;-86
2022/04/25 04:34:23;;;;;;;21.35;10.63;;;6.50;99.90;;;;;;5055680;28;20544;-87
2022/04/25 04:36:50;;;;;;;22.38;11.73;;;6.50;99.90;;;;;;5055595;28;20171;-87
2022/04/25 04:39:16;;;;;;;24.75;11.77;;;6.50;99.90;;;;;;5056075;28;20049;-87
2022/04/25 04:41:42;;;;;;;24.50;11.13;;;6.50;99.90;;;;;;5037310;28;20056;-87
2022/04/25 04:44:07;;;;;;;22.85;11.73;;;6.50;99.90;;;;;;5037279;28;20052;-87
2022/04/25 04:46:33;;;;;;;22.95;11.10;;;6.60;99.90;;;;;;5037675;28;20103;-87
2022/04/25 04:48:58;;;;;;;20.60;11.20;;;6.60;99.90;;;;;;5037821;28;20049;-87
2022/04/25 04:51:24;;;;;;;22.52;11.30;;;6.50;99.90;;;;;;5054519;28;20103;-86
2022/04/25 04:53:49;;;;;;;24.50;11.95;;;6.60;99.90;;;;;;5037730;28;20037;-86
2022/04/25 04:56:15;;;;;;;23.08;11.60;;;6.60;99.90;;;;;;5037456;28;20576;-87
2022/04/25 04:58:40;;;;;;;24.95;11.75;;;6.60;99.90;;;;;;5054406;28;20120;-87
2022/04/25 05:01:07;;;;;;;19.33;11.38;;;6.60;99.90;;;;;;5037273;28;20389;-88
2022/04/25 05:03:34;;;;;;;24.17;10.60;;;6.70;99.90;;;;;;5037630;28;20136;-87
2022/04/25 05:05:59;;;;;;;20.25;10.48;;;6.70;99.90;;;;;;5054618;28;20045;-87
2022/04/25 05:08:25;;;;;;;21.67;11.65;;;6.60;99.90;;;;;;5055208;28;20045;-86
2022/04/25 05:10:51;;;;;;;23.15;10.90;;;6.70;99.90;;;;;;5037766;28;20033;-91
2022/04/25 05:13:17;;;;;;;19.90;10.73;;;6.70;99.90;;;;;;5039599;28;20182;-91
2022/04/25 05:15:43;;;;;;;21.17;10.70;;;7.20;99.90;;;;;;5037896;28;20041;-91
2022/04/25 05:18:08;;;;;;;20.38;10.80;;;6.70;99.90;;;;;;5055674;28;20123;-95
2022/04/25 05:20:34;;;;;;;22.90;10.45;;;6.70;99.90;;;;;;5039542;28;20041;-89
2022/04/25 05:23:03;;;;;;;19.30;10.25;;;6.70;99.90;;;;;;5038275;28;20098;-90
2022/04/25 05:25:29;;;;;;;22.35;10.35;;;6.70;99.90;;;;;;5038117;28;20051;-90
2022/04/25 05:27:55;;;;;;;19.48;10.35;;;6.90;99.90;;;;;;5036533;28;20036;-91
2022/04/25 05:30:25;;;;;;;18.17;9.90;;;6.80;99.90;;;;;;5118554;22;20045;-91
2022/04/25 05:36:00;;;;;;;21.85;10.65;;;7.20;99.90;;;;;;5080333;28;20088;-96
2022/04/25 05:38:41;;;;;;;17.80;9.63;;;6.80;99.90;;;;;;5060272;28;20052;-91
2022/04/25 05:41:09;;;;;;;22.00;9.50;;;7.20;99.90;;;;;;5056900;28;20518;-89
2022/04/25 05:43:47;;;;;;;23.42;10.77;;;7.00;99.90;;;;;;5057570;28;20044;-90
2022/04/25 05:46:13;;;;;;;21.65;9.88;;;6.90;99.90;;;;;;5057300;28;20141;-91
2022/04/25 05:51:59;;;;;;;18.65;9.52;;;7.00;99.90;;;;;;5074999;28;20123;-90
2022/04/25 05:54:26;;;;;;;19.63;9.82;;;7.00;99.90;;;;;;5057086;28;20048;-91
2022/04/25 05:56:52;;;;;;;18.00;9.65;;;7.00;99.90;;;;;;5074263;28;20132;-92
2022/04/25 05:59:19;;;;;;;20.08;9.68;;;7.00;99.90;;;;;;5057334;28;20086;-94
2022/04/25 06:01:44;;;;;;;20.17;10.23;;;7.00;99.90;;;;;;5057463;28;20056;-95
2022/04/25 06:04:10;;;;;;;23.95;9.57;;;7.00;99.90;;;;;;5057573;28;20044;-94
2022/04/25 06:06:38;;;;;;;19.80;10.20;;;7.00;99.90;;;;;;5058281;28;20072;-93
2022/04/25 06:09:04;;;;;;;24.33;10.75;;;7.00;99.90;;;;;;5057297;28;20089;-92
2022/04/25 06:11:31;;;;;;;19.75;9.02;;;7.00;99.90;;;;;;5075387;28;20040;-93
2022/04/25 06:14:02;;;;;;;20.10;10.38;;;7.50;99.90;;;;;;5074381;28;20051;-95
2022/04/25 06:16:28;;;;;;;18.70;9.40;;;7.40;99.90;;;;;;5075075;28;20037;-93
2022/04/25 06:19:05;;;;;;;19.92;10.30;;;7.00;99.90;;;;;;5056728;28;20722;-93
2022/04/25 06:21:30;;;;;;;21.88;9.80;;;6.80;99.90;;;;;;5074764;28;20484;-93
2022/04/25 06:24:08;;;;;;;18.65;9.23;;;6.90;99.90;;;;;;5056069;28;20089;-92
2022/04/25 06:26:36;;;;;;;20.10;9.57;;;7.00;99.90;;;;;;5073682;28;20045;-93
2022/04/25 06:29:02;;;;;;;21.50;10.90;;;7.00;99.90;;;;;;5055624;28;20055;-92
2022/04/25 06:31:42;;;;;;;19.83;10.13;;;7.10;99.90;;;;;;5073247;28;20052;-89
2022/04/25 06:34:08;;;;;;;20.20;10.65;;;6.90;99.90;;;;;;5073717;28;20045;-90
2022/04/25 06:36:46;;;;;;;22.42;11.25;;;7.20;99.90;;;;;;5076928;28;20050;-89
2022/04/25 06:39:11;;;;;;;21.08;10.02;;;7.10;99.90;;;;;;5056017;28;20040;-88
2022/04/25 06:41:37;;;;;;;21.45;11.05;;;7.20;99.90;;;;;;5055938;28;20044;-89
2022/04/25 06:44:11;;;;;;;23.30;10.77;;;7.20;99.90;;;;;;5055275;28;20072;-89
2022/04/25 06:46:37;;;;;;;22.38;11.10;;;7.20;99.90;;;;;;5074180;28;20083;-94
2022/04/25 06:51:53;;;;;;;20.35;11.52;;;7.00;99.90;;;;;;5058706;28;20056;-96
2022/04/25 06:54:37;;;;;;;22.23;11.48;;;7.10;99.90;;;;;;5075922;28;20095;-96
2022/04/25 06:57:03;;;;;;;22.05;11.27;;;7.40;99.90;;;;;;5061005;28;20424;-96
2022/04/25 07:02:26;;;;;;;27.88;11.57;;;7.20;99.90;;;;;;5063226;22;20080;-94
2022/04/25 07:05:07;;;;;;;19.55;10.55;;;7.10;99.90;;;;;;5036573;28;20106;-92
2022/04/25 07:07:35;;;;;;;21.80;11.07;;;7.20;99.90;;;;;;5036174;28;20041;-92
2022/04/25 07:10:13;;;;;;;20.58;10.75;;;7.20;99.90;;;;;;5036079;28;20135;-91
2022/04/25 07:12:38;;;;;;;24.60;11.00;;;7.00;99.90;;;;;;5038124;22;20056;-91
2022/04/25 07:15:07;;;;;;;23.63;11.32;;;7.20;99.90;;;;;;5032691;28;20125;-91
2022/04/25 07:17:32;;;;;;;22.55;11.60;;;7.20;99.90;;;;;;5015948;28;20141;-92
2022/04/25 07:19:58;;;;;;;24.33;12.18;;;7.20;99.90;;;;;;5033288;28;20541;-91
2022/04/25 07:30:36;;;;;;;;;;;7.20;99.90;;;;;;5017342;28;20049;-91
2022/04/25 07:33:02;;;;;;;25.45;14.02;;;7.20;99.90;;;;;;5032431;28;20312;-91
2022/04/25 07:35:28;;;;;;;30.23;14.55;;;7.20;99.90;;;;;;5033300;28;20037;-90
2022/04/25 07:38:10;;;;;;;28.10;15.02;;;7.20;99.90;;;;;;5019386;28;20057;-89
2022/04/25 07:40:36;;;;;;;24.33;13.75;;;7.10;99.90;;;;;;5021733;28;20049;-93
2022/04/25 07:43:03;;;;;;;26.27;14.68;;;7.20;99.90;;;;;;5037364;28;20129;-94
2022/04/25 07:45:39;;;;;;;26.23;14.95;;;7.80;99.90;;;;;;5018980;28;20049;-94
2022/04/25 07:48:25;;;;;;;28.00;15.00;;;7.40;99.90;;;;;;5016863;28;20092;-93
2022/04/25 07:51:00;;;;;;;26.08;14.60;;;7.20;99.90;;;;;;5002396;28;20049;-95
2022/04/25 07:53:27;;;;;;;28.38;14.57;;;7.20;99.90;;;;;;5035659;28;20057;-96
2022/04/25 07:56:17;;;;;;;30.92;15.25;;;7.40;99.90;;;;;;5049198;28;20125;-96
2022/04/25 07:59:06;;;;;;;31.00;15.07;;;7.50;99.90;;;;;;5028938;28;20045;-94
2022/04/25 08:01:33;;;;;;;29.65;14.75;;;7.30;99.90;;;;;;4983827;28;20054;-95
2022/04/25 08:04:14;;;;;;;26.33;14.15;;;7.10;99.90;;;;;;5003169;28;20053;-96
2022/04/25 08:07:23;;;;;;;24.02;14.27;;;7.40;99.90;;;;;;5001659;28;20046;-96
2022/04/25 08:10:09;;;;;;;25.35;12.43;;;7.60;99.90;;;;;;4984327;28;20047;-93
2022/04/25 08:19:44;;;;;;;21.80;12.43;;;7.40;99.90;;;;;;4998252;28;20437;-93
2022/04/25 08:22:10;;;;;;;21.13;12.25;;;8.00;99.90;;;;;;4977623;28;20046;-96
2022/04/25 08:24:37;;;;;;;22.40;12.80;;;7.40;99.90;;;;;;4977620;28;20054;-94
2022/04/25 08:27:06;;;;;;;19.77;12.35;;;7.40;99.90;;;;;;5000205;28;20140;-94
2022/04/25 08:29:49;;;;;;;22.00;11.25;;;7.60;99.90;;;;;;5020748;28;20077;-93
2022/04/25 08:32:41;;;;;;;22.38;11.15;;;7.30;99.90;;;;;;5018284;28;20129;-95
2022/04/25 08:35:09;;;;;;;23.65;12.40;;;7.30;99.90;;;;;;4987919;28;20054;-95
2022/04/25 08:37:36;;;;;;;21.65;11.65;;;7.40;99.90;;;;;;5018386;28;20081;-94
2022/04/25 08:40:05;;;;;;;23.98;11.88;;;7.50;99.90;;;;;;5017464;28;20450;-95
2022/04/25 08:42:31;;;;;;;25.17;12.65;;;7.50;99.90;;;;;;5012724;28;20049;-92
2022/04/25 08:45:05;;;;;;;24.15;11.73;;;7.50;99.90;;;;;;5016795;28;20100;-95
2022/04/25 08:47:47;;;;;;;22.10;12.55;;;7.60;99.90;;;;;;5001699;28;20049;-95
2022/04/25 08:50:23;;;;;;;21.55;12.23;;;7.60;99.90;;;;;;5024281;28;20046;-94
2022/04/25 08:52:49;;;;;;;23.02;12.30;;;7.70;99.90;;;;;;5022775;28;20124;-93
2022/04/25 08:55:16;;;;;;;27.25;12.90;;;7.70;99.90;;;;;;5000818;28;20045;-95
2022/04/25 08:57:43;;;;;;;23.90;12.63;;;7.60;99.90;;;;;;5017137;28;20053;-93
2022/04/25 09:00:15;;;;;;;23.60;11.63;;;8.50;99.90;;;;;;5000463;28;20100;-94
2022/04/25 09:02:42;;;;;;;22.20;11.15;;;8.90;99.90;;;;;;4999658;28;20046;-95
2022/04/25 09:05:22;;;;;;;21.88;11.40;;;7.70;99.90;;;;;;5017100;28;20038;-94
2022/04/25 09:08:03;;;;;;;19.52;11.23;;;8.40;99.90;;;;;;5001323;28;20061;-95
2022/04/25 09:10:32;;;;;;;23.42;11.95;;;7.70;99.90;;;;;;5005802;28;20053;-96
2022/04/25 09:12:58;;;;;;;25.00;12.70;;;7.90;99.90;;;;;;5017392;28;20478;-95
2022/04/25 09:15:26;;;;;;;22.45;12.07;;;8.40;99.90;;;;;;5017339;28;20034;-94
2022/04/25 09:18:09;;;;;;;24.08;12.57;;;8.50;99.90;;;;;;4999263;28;20070;-94
2022/04/25 09:20:44;;;;;;;21.63;11.48;;;7.90;99.90;;;;;;4999598;28;20510;-94
2022/04/25 09:23:21;;;;;;;23.27;11.18;;;7.90;99.90;;;;;;5016791;28;20037;-94
2022/04/25 09:26:20;;;;;;;21.85;11.15;;;8.10;99.90;;;;;;5033490;28;20450;-94
2022/04/25 09:29:01;;;;;;;25.80;11.27;;;8.30;99.90;;;;;;5019154;28;20060;-93
2022/04/25 09:31:29;;;;;;;20.15;9.88;;;8.60;99.90;;;;;;5019942;28;20038;-96
2022/04/25 09:34:16;;;;;;;17.65;9.75;;;8.30;99.90;;;;;;5042830;28;20130;-95
2022/04/25 09:37:06;;;;;;;18.70;10.10;;;8.40;99.90;;;;;;5022579;28;20119;-96
2022/04/25 09:39:32;;;;;;;19.92;9.57;;;8.40;99.90;;;;;;5039328;28;20136;-96
2022/04/25 09:42:02;;;;;;;20.40;10.18;;;9.30;99.90;;;;;;5023138;28;20088;-95
2022/04/25 09:44:58;;;;;;;17.67;10.27;;;8.20;99.90;;;;;;5052117;28;20049;-96
2022/04/25 09:47:32;;;;;;;17.90;10.15;;;8.40;99.90;;;;;;5022193;28;20084;-96
2022/04/25 09:50:08;;;;;;;17.33;9.73;;;8.20;99.90;;;;;;5021802;28;20442;-96
2022/04/25 09:53:13;;;;;;;19.00;9.98;;;8.50;99.90;;;;;;5042488;28;20049;-96
2022/04/25 09:55:50;;;;;;;19.15;9.32;;;8.60;99.90;;;;;;5035995;28;20040;-95
2022/04/25 09:58:22;;;;;;;17.83;9.57;;;8.60;99.90;;;;;;5022492;28;20485;-91
2022/04/25 10:01:11;;;;;;;19.75;9.82;;;10.10;99.90;;;;;;5018396;28;20056;-93
2022/04/25 10:03:39;;;;;;;18.48;9.93;;;8.70;99.90;;;;;;5035134;28;20108;-95
2022/04/25 10:06:17;;;;;;;19.52;10.50;;;8.40;99.90;;;;;;5019002;28;20378;-95
2022/04/25 10:08:44;;;;;;;18.67;9.88;;;9.10;99.90;;;;;;5036294;28;20061;-88
2022/04/25 10:11:15;;;;;;;19.40;10.20;;;7.50;99.90;;;;;;5020300;28;20064;-95
2022/04/25 10:13:42;;;;;;;18.58;10.65;;;9.10;99.90;;;;;;5020490;28;20053;-91
2022/04/25 10:16:22;;;;;;;24.73;11.43;;;8.40;99.90;;;;;;5016599;28;20037;-90
2022/04/25 10:18:48;;;;;;;21.13;11.45;;;8.70;99.90;;;;;;5033515;28;20049;-93
2022/04/25 10:21:29;;;;;;;18.92;11.38;;;8.70;99.90;;;;;;5033659;28;20042;-92
2022/04/25 10:23:57;;;;;;;22.17;12.20;;;10.20;99.90;;;;;;5033433;28;20045;-92
2022/04/25 10:26:30;;;;;;;21.08;11.52;;;9.50;99.90;;;;;;5016174;28;20052;-91
2022/04/25 10:29:08;;;;;;;18.85;11.63;;;8.70;99.90;;;;;;5033082;28;20136;-92
2022/04/25 10:31:55;;;;;;;21.42;11.25;;;8.70;99.90;;;;;;5016919;28;20556;-93
2022/04/25 10:35:05;;;;;;;20.13;11.75;;;8.80;99.90;;;;;;5016931;28;20056;-91
2022/04/25 10:37:40;;;;;;;21.67;11.70;;;9.10;99.90;;;;;;5033807;28;20136;-92
2022/04/25 10:44:09;;;;;;;20.98;11.18;;;8.90;99.90;;;;;;5043821;22;20020;-93
2022/04/25 10:46:15;;;;;;;20.45;11.90;;;9.20;99.90;;;;;;5057843;28;20079;-91
2022/04/25 10:49:27;;;;;;;19.00;10.40;;;10.40;99.90;;;;;;5042310;28;20045;-92
2022/04/25 10:55:33;;;;;;;16.92;9.73;;;9.30;99.90;;;;;;5055382;28;20053;-90
2022/04/25 10:58:09;;;;;;;17.65;10.70;;;9.90;99.90;;;;;;5035568;28;20045;-92
2022/04/25 11:00:46;;;;;;;19.95;10.27;;;10.00;99.90;;;;;;5053152;28;20048;-90
2022/04/25 11:03:20;;;;;;;18.00;9.95;;;9.80;99.90;;;;;;5036693;28;20051;-90
2022/04/25 11:06:06;;;;;;;16.45;9.25;;;9.20;99.90;;;;;;5035271;28;20051;-90
2022/04/25 11:08:49;;;;;;;16.65;9.10;;;8.90;99.90;;;;;;5054388;28;20102;-91
2022/04/25 11:11:30;;;;;;;20.00;9.75;;;10.40;99.90;;;;;;5034870;28;20041;-91
2022/04/25 11:14:13;;;;;;;16.95;9.30;;;9.40;99.90;;;;;;5035691;28;20072;-90
2022/04/25 11:17:28;;;;;;;18.98;9.65;;;8.90;99.90;;;;;;5035066;28;20049;-92
2022/04/25 11:20:05;;;;;;;15.35;8.73;;;9.20;99.90;;;;;;5053170;28;20084;-91
2022/04/25 11:22:40;;;;;;;16.60;8.65;;;9.30;99.90;;;;;;5053652;28;20040;-91
2022/04/25 11:25:24;;;;;;;16.95;9.18;;;9.80;99.90;;;;;;5035018;28;20072;-91
2022/04/25 11:31:50;;;;;;;17.58;8.95;;;9.80;99.90;;;;;;5035153;28;20393;-91
2022/04/25 11:34:34;;;;;;;15.98;8.82;;;10.00;99.90;;;;;;5034885;28;20049;-92
2022/04/25 11:37:12;;;;;;;17.00;8.55;;;9.70;99.90;;;;;;5035716;28;20090;-90
2022/04/25 11:42:33;;;;;;;16.00;8.40;;;9.90;99.90;;;;;;5117499;22;20040;-91
2022/04/25 11:45:14;;;;;;;15.20;8.25;;;10.10;99.90;;;;;;5036337;28;20041;-91
2022/04/25 11:47:55;;;;;;;16.88;9.07;;;9.90;99.90;;;;;;5034630;28;20052;-90
2022/04/25 11:50:36;;;;;;;14.93;8.52;;;9.30;99.90;;;;;;5044754;28;20451;-91
2022/04/25 11:53:51;;;;;;;20.55;10.02;;;9.70;99.90;;;;;;5034851;28;20045;-90
2022/04/25 11:56:39;;;;;;;17.23;9.38;;;9.70;99.90;;;;;;5019525;28;20104;-90
2022/04/25 11:59:19;;;;;;;17.02;9.82;;;9.50;99.90;;;;;;5036402;28;20077;-90
2022/04/25 12:01:52;;;;;;;17.60;9.50;;;9.70;99.90;;;;;;5055190;28;20499;-91
2022/04/25 12:04:34;;;;;;;18.92;9.85;;;9.80;99.90;;;;;;5038473;28;20499;-91
2022/04/25 12:07:08;;;;;;;19.00;10.77;;;9.90;99.90;;;;;;5062656;22;20059;-90
2022/04/25 12:16:02;;;;;;;16.10;10.00;;;10.20;99.90;;;;;;5054564;28;20041;-91
2022/04/25 12:18:31;;;;;;;20.17;10.48;;;10.50;99.90;;;;;;5063471;22;20885;-91
2022/04/25 12:21:11;;;;;;;17.13;9.68;;;10.30;99.90;;;;;;5055050;28;20127;-91
2022/04/25 12:23:43;;;;;;;15.25;9.65;;;10.50;99.90;;;;;;5042389;22;20057;-90
2022/04/25 12:26:35;;;;;;;17.27;9.07;;;10.00;99.90;;;;;;5018223;28;20107;-90
2022/04/25 12:29:09;;;;;;;16.70;10.23;;;10.50;99.90;;;;;;5013066;28;20140;-90
2022/04/25 12:31:49;;;;;;;16.98;9.48;;;9.90;99.90;;;;;;5036159;28;20037;-90
2022/04/25 12:34:17;;;;;;;18.50;9.38;;;10.30;99.90;;;;;;5036249;28;20081;-90
2022/04/25 12:37:05;;;;;;;17.35;10.07;;;11.40;99.90;;;;;;5017090;28;20474;-89
2022/04/25 12:39:30;;;;;;;15.50;9.52;;;10.40;99.90;;;;;;5018047;28;20059;-90
2022/04/25 12:42:06;;;;;;;16.15;9.80;;;9.20;99.90;;;;;;5034771;28;20120;-90
2022/04/25 12:44:40;;;;;;;16.45;10.20;;;10.30;99.90;;;;;;5018291;28;20053;-90
2022/04/25 12:47:15;;;;;;;18.27;10.85;;;11.10;99.90;;;;;;5035794;28;20041;-90
2022/04/25 12:49:44;;;;;;;16.17;10.00;;;10.40;99.90;;;;;;5017164;28;20476;-89
2022/04/25 12:52:19;;;;;;;17.88;10.65;;;10.10;99.90;;;;;;5019609;28;20496;-90
2022/04/25 12:54:44;;;;;;;20.33;11.07;;;10.10;99.90;;;;;;5039895;28;20069;-89
2022/04/25 12:57:16;;;;;;;17.73;10.82;;;10.70;99.90;;;;;;5034829;28;20446;-89
2022/04/25 12:59:58;;;;;;;18.90;11.35;;;10.60;99.90;;;;;;5035752;28;20072;-89
2022/04/25 13:02:36;;;;;;;18.33;10.90;;;10.80;99.90;;;;;;5035690;28;20045;-91
2022/04/25 13:05:10;;;;;;;21.30;11.48;;;10.20;99.90;;;;;;5016956;28;20436;-90
2022/04/25 13:07:51;;;;;;;19.20;11.70;;;10.20;99.90;;;;;;5035236;28;20385;-89
2022/04/25 13:10:19;;;;;;;18.92;11.07;;;10.40;99.90;;;;;;5017175;28;20477;-90
2022/04/25 13:12:50;;;;;;;18.42;12.27;;;10.50;99.90;;;;;;5034977;28;20060;-90
2022/04/25 13:15:20;;;;;;;19.27;12.55;;;10.20;99.90;;;;;;5018642;28;20041;-91
2022/04/25 13:17:56;;;;;;;20.58;12.68;;;10.70;99.90;;;;;;5035061;28;20037;-90
2022/04/25 13:20:24;;;;;;;22.50;12.20;;;10.40;99.90;;;;;;5018129;28;20405;-90
2022/04/25 13:22:51;;;;;;;19.25;12.27;;;10.20;99.90;;;;;;5028973;28;20133;-90
2022/04/25 13:25:23;;;;;;;22.15;14.23;;;10.00;99.90;;;;;;5056012;22;20049;-90
2022/04/25 13:27:51;;;;;;;20.00;12.35;;;10.60;99.90;;;;;;5037898;28;20507;-89
2022/04/25 13:30:35;;;;;;;22.38;13.07;;;10.40;99.90;;;;;;5037608;28;20077;-90
2022/04/25 13:33:01;;;;;;;20.77;13.23;;;9.70;99.90;;;;;;5053893;28;20045;-89
2022/04/25 13:35:29;;;;;;;20.02;13.02;;;10.70;99.90;;;;;;5037015;28;20499;-90
2022/04/25 13:37:55;;;;;;;19.50;13.48;;;9.80;99.90;;;;;;5054855;28;20037;-90
2022/04/25 13:40:20;;;;;;;21.20;13.65;;;10.10;99.90;;;;;;5035983;28;20094;-89
2022/04/25 13:42:49;;;;;;;21.10;13.35;;;10.00;99.90;;;;;;5054747;28;20045;-89
2022/04/25 13:45:16;;;;;;;20.75;13.48;;;11.50;99.90;;;;;;5055704;28;20080;-89
2022/04/25 13:47:42;;;;;;;20.90;12.68;;;9.70;99.90;;;;;;5037666;28;20080;-89
2022/04/25 13:50:08;;;;;;;21.50;13.45;;;10.00;99.90;;;;;;5038918;28;20080;-90
2022/04/25 13:52:34;;;;;;;21.60;12.85;;;9.80;99.90;;;;;;5037993;28;20400;-89